Stuttgart Airport

EDDS · Badenia-Wirtembergia, Niemcy

7 października 2022

Czas Kod Pogoda Temp. Widoczność Sufit Wiatr METAR/SPECI
14:20
V
19 °C 10 km+ 24.000 ft 210° 210° 2 kt METAR ETHN 071220Z 21002KT 9999 FEW024 BKN240 19/12 Q1023 BLU+
13:20
V
17 °C 10 km+ 20.000 ft 220° 220° 4 kt METAR ETHN 071120Z 22004KT 9999 FEW024 SCT040 BKN200 17/11 Q1024 BLU+
12:20
V
16 °C 10 km+ 19.000 ft 290° 290° 3 kt METAR ETHN 071020Z 29003KT 9999 SCT040 BKN190 16/10 Q1025 BLU FCST CNL
11:20
V
15 °C 10 km+ 4.500 ft 220° 220° 2 kt METAR ETHN 070920Z 22002KT 9999 BKN045 15/10 Q1025 BLU BLU
10:20
V
13 °C 10 km+ 4.300 ft Var Var 2 kt METAR ETHN 070820Z VRB02KT 9999 BKN043 13/09 Q1026 BLU BLU
09:20
V
12 °C 10 km+ 4.400 ft 140° 140° 4 kt METAR ETHN 070720Z 14004KT 9999 FEW035 BKN044 12/09 Q1026 BLU BLU
08:20
V
11 °C 10 km+ 4.300 ft Var Var 1 kt METAR ETHN 070620Z VRB01KT 9999 FEW030 BKN043 11/09 Q1026 BLU BLU
07:20
V
11 °C 10 km+ 4.300 ft 130° 130° 1 kt METAR ETHN 070520Z 13001KT 9999 BKN043 11/07 Q1026 BLU BLU
06:20
V
10 °C 10 km+ 4.300 ft 120° 120° 4 kt METAR ETHN 070420Z 12004KT 9999 BKN043 10/07 Q1027 BLU BLU
05:20
V
10 °C 10 km+ 4.300 ft 080° 080° 1 kt METAR ETHN 070320Z 08001KT 9999 BKN043 10/07 Q1027 BLU
04:20
V
10 °C 10 km+ 4.200 ft Var Var 1 kt METAR ETHN 070220Z VRB01KT 9999 BKN042 10/07 Q1028 BLU
03:20
V
10 °C 10 km+ 4.000 ft 070° 070° 2 kt METAR ETHN 070120Z 07002KT 9999 BKN040 10/07 Q1028 BLU
02:20
V
8 °C 10 km+ - 100° 100° 4 kt METAR ETHN 070020Z 10004KT 9999 SCT040 SCT350 08/07 Q1029 BLU+
01:20
V
8 °C 10 km+ - 100° 100° 5 kt METAR ETHN 062320Z 10005KT 9999 SCT040 SCT350 08/07 Q1029 BLU+
00:20
V
8 °C 10 km+ - 060° 060° 5 kt METAR ETHN 062220Z 06005KT 9999 FEW040 SCT350 08/07 Q1030 BLU+FCST CANCEL

6 października 2022

Czas Kod Pogoda Temp. Widoczność Sufit Wiatr METAR/SPECI
23:20
V
8 °C 10 km+ - Var 000° 0 kt METAR ETHN 062120Z 00000KT 9999 SCT360 08/07 Q1030 BLU+BLU+
22:20
V
8 °C 10 km+ - 070° 070° 2 kt METAR ETHN 062020Z 07002KT 9999 SCT280 08/07 Q1031 BLU+BLU+
21:20
V
9 °C 10 km+ 30.000 ft Var 000° 0 kt METAR ETHN 061920Z 00000KT 9999 BKN300 09/07 Q1031 BLU+BLU+
20:20
V
11 °C 10 km+ 25.000 ft Var 000° 0 kt METAR ETHN 061820Z 00000KT 9999 BKN250 11/07 Q1030 BLU+BLU+
19:20
V
13 °C 10 km+ - 270° 270° 2 kt METAR ETHN 061720Z 27002KT 9999 SCT300 13/07 Q1030 BLU+BLU+
18:20
V
15 °C 10 km+ 30.000 ft 270° 270° 4 kt METAR ETHN 061620Z 27004KT 9999 FEW040 BKN300 15/07 Q1030 BLU+BLU+
17:20
V
16 °C 10 km+ - 240° 240° 6 kt METAR ETHN 061520Z 24006KT 9999 FEW040 SCT250 16/07 Q1030 BLU+BLU+
16:20
V
17 °C 10 km+ - 260° 260° 5 kt METAR ETHN 061420Z 26005KT 9999 FEW039 SCT230 17/07 Q1030 BLU+BLU+
15:20
V
17 °C 10 km+ - 290° 290° 7 kt METAR ETHN 061320Z 29007KT 9999 FEW038 SCT230 17/07 Q1030 BLU+BLU+
14:20
V
17 °C 10 km+ - 290° 290° 6 - 18 kt METAR ETHN 061220Z 29006G18KT 9999 FEW035 SCT300 17/08 Q1031 BLU+BLU+
13:20
V
15 °C 10 km+ - 320° 320° 5 kt METAR ETHN 061120Z 32005KT 9999 FEW028 15/08 Q1031 BLU+BLU+
12:20
V
15 °C 10 km+ - 280° 280° 5 kt METAR ETHN 061020Z 28005KT 9999 SCT016 15/08 Q1031 BLU+BLU+
11:20
V
14 °C 10 km+ - 310° 310° 7 kt METAR ETHN 060920Z 31007KT 9999 FEW012 SCT027 14/09 Q1031 BLU+BLU+
10:20
V
14 °C 10 km+ - 280° 280° 8 kt METAR ETHN 060820Z 28008KT 9999 SCT010 SCT040 14/11 Q1030 BLU+BLU+ TEMPO GRN
09:20
V
13 °C 10 km+ 3.000 ft 310° 310° 3 kt METAR ETHN 060720Z 31003KT 9999 FEW008 BKN030 13/12 Q1029 BLU BLU TEMPO GRN
08:20
M
13 °C 10 km+ 1.500 ft 290° 290° 9 kt METAR ETHN 060620Z 29009KT 9999 -DZRA SCT008 BKN015 13/11 Q1028 WHT BLU TEMPO GRN
08:03
M
14 °C 10 km+ 2.200 ft 270° 270° 11 kt METAR ETHN 060603Z 27011KT 9999 FEW008 BKN022 14/12 Q1028 WHT BLU TEMPO GRN
07:20
M
13 °C 10 km+ 2.800 ft 260° 260° 9 kt METAR ETHN 060520Z 26009KT 9999 FEW017 BKN028 13/11 Q1027 BLU BLU TEMPO GRN
06:20
V
13 °C 10 km+ - 250° 250° 9 kt METAR ETHN 060420Z 25009KT 9999 FEW020 SCT030 13/10 Q1027 BLU+BLU TEMPO GRN
05:20
V
13 °C 10 km+ 3.000 ft 250° 250° 7 kt METAR ETHN 060320Z 25007KT 9999 SCT020 BKN030 13/10 Q1026 BLU
04:20
V
13 °C 10 km+ - 230° 230° 7 kt METAR ETHN 060220Z 23007KT 9999 FEW040 13/09 Q1025 BLU+
03:20
V
14 °C 10 km+ - 240° 240° 8 kt METAR ETHN 060120Z 24008KT 9999 SCT040 14/09 Q1025 BLU+
02:20
V
15 °C 10 km+ - 250° 250° 7 kt METAR ETHN 060020Z 25007KT 9999 FEW340 15/09 Q1025 BLU+
01:20
V
15 °C 10 km+ - 250° 250° 7 kt METAR ETHN 052320Z 25007KT 9999 15/09 Q1024 BLU+
00:20
V
14 °C 10 km+ - 250° 250° 7 kt METAR ETHN 052220Z 25007KT 9999 FEW350 14/10 Q1024 BLU+
00:00
V
15 °C 10 km+ - 250° 250° 7 kt METAR ETHN 052200Z 25007KT 9999 FEW350 15/10 Q1023 BLU+FCST CANCEL

5 października 2022

Czas Kod Pogoda Temp. Widoczność Sufit Wiatr METAR/SPECI
23:20
V
15 °C 10 km+ - 250° 250° 8 kt METAR ETHN 052120Z 25008KT 9999 SCT350 15/10 Q1023 BLU+BLU+
22:20
V
16 °C 10 km+ - 250° 250° 6 kt METAR ETHN 052020Z 25006KT 9999 SCT350 16/11 Q1023 BLU+BLU+
21:20
V
15 °C 10 km+ 32.000 ft 210° 210° 5 kt METAR ETHN 051920Z 21005KT 9999 BKN320 15/12 Q1022 BLU+BLU+
20:20
V
16 °C 10 km+ 34.000 ft Var Var 3 kt METAR ETHN 051820Z VRB03KT 9999 BKN340 16/12 Q1021 BLU+BLU+
19:20
V
17 °C 10 km+ 31.000 ft 240° 240° 4 kt METAR ETHN 051720Z 24004KT 9999 BKN310 17/12 Q1021 BLU+BLU+
18:20
V
20 °C 10 km+ 30.000 ft 260° 260° 5 kt METAR ETHN 051620Z 26005KT 9999 BKN300 20/12 Q1020 BLU+BLU+
17:20
V
21 °C 10 km+ 31.000 ft 220° 220° 7 kt METAR ETHN 051520Z 22007KT 9999 BKN310 21/12 Q1020 BLU+BLU+
16:20
V
21 °C 10 km+ 30.000 ft 220° 220° 9 kt METAR ETHN 051420Z 22009KT 9999 BKN300 21/12 Q1021 BLU+BLU+
15:20
V
20 °C 10 km+ 31.000 ft 260° 260° 6 kt METAR ETHN 051320Z 26006KT 9999 FEW025 BKN310 20/12 Q1021 BLU+BLU+
Starsze dane

My i osoby trzecie śledzimy twoje zachowanie w internecie na naszej stronie za pomocą plików cookie. Jeśli kontynuujesz, zakładamy, że zgadzasz się z naszą polityką plików cookie. Dowiedz się więcej